createdAt,value
2018-03-28T00:02:19.876Z,4.50
2018-03-28T00:04:48.196Z,4.40
2018-03-28T00:07:16.497Z,4.40
2018-03-28T00:09:44.037Z,4.40
2018-03-28T00:12:11.570Z,4.40
2018-03-28T00:14:39.112Z,4.40
2018-03-28T00:17:07.397Z,4.40
2018-03-28T00:19:35.277Z,4.30
2018-03-28T00:22:02.808Z,4.30
2018-03-28T00:24:31.112Z,4.30
2018-03-28T00:26:58.636Z,4.30
2018-03-28T00:29:26.957Z,4.20
2018-03-28T00:31:55.252Z,4.20
2018-03-28T00:34:22.804Z,4.20
2018-03-28T00:36:50.326Z,4.10
2018-03-28T00:39:17.871Z,4.10
2018-03-28T00:41:45.388Z,4.10
2018-03-28T00:44:12.921Z,4.10
2018-03-28T00:46:40.489Z,4.00
2018-03-28T00:49:08.024Z,4.00
2018-03-28T00:51:37.577Z,3.90
2018-03-28T00:54:05.107Z,3.90
2018-03-28T00:56:32.630Z,3.90
2018-03-28T00:59:00.172Z,3.80
2018-03-28T01:01:27.697Z,3.80
2018-03-28T01:03:55.246Z,3.80
2018-03-28T01:06:22.769Z,3.70
2018-03-28T01:08:51.068Z,3.60
2018-03-28T01:11:18.592Z,3.60
2018-03-28T01:13:46.137Z,3.60
2018-03-28T01:16:13.668Z,3.60
2018-03-28T01:18:41.952Z,3.50
2018-03-28T01:21:09.471Z,3.50
2018-03-28T01:23:37.010Z,3.50
2018-03-28T01:26:05.292Z,3.40
2018-03-28T01:28:32.838Z,3.40
2018-03-28T01:31:01.127Z,3.40
2018-03-28T01:33:28.684Z,3.30
2018-03-28T01:35:56.975Z,3.30
2018-03-28T01:38:24.516Z,3.30
2018-03-28T01:40:52.036Z,3.30
2018-03-28T01:43:20.364Z,3.30
2018-03-28T01:45:47.880Z,3.30
2018-03-28T01:48:15.405Z,3.20
2018-03-28T01:50:42.969Z,3.30
2018-03-28T01:53:10.509Z,3.30
2018-03-28T01:55:38.056Z,3.20
2018-03-28T01:58:05.581Z,3.20
2018-03-28T02:00:33.127Z,3.20
2018-03-28T02:03:00.641Z,3.20
2018-03-28T02:05:28.193Z,3.00
2018-03-28T02:07:55.717Z,3.20
2018-03-28T02:10:24.020Z,3.20
2018-03-28T02:12:51.543Z,3.20
2018-03-28T02:15:19.100Z,3.20
2018-03-28T02:17:46.628Z,3.20
2018-03-28T02:20:14.156Z,3.20
2018-03-28T02:22:41.692Z,3.20
2018-03-28T02:25:10.018Z,3.20
2018-03-28T02:27:37.544Z,3.20
2018-03-28T02:30:05.096Z,3.20
2018-03-28T02:32:32.651Z,3.20
2018-03-28T02:35:00.193Z,3.20
2018-03-28T02:37:27.711Z,3.20
2018-03-28T02:39:55.248Z,3.20
2018-03-28T02:42:22.784Z,3.20
2018-03-28T02:44:51.093Z,3.20
2018-03-28T02:47:18.813Z,3.20
2018-03-28T02:49:47.128Z,3.30
2018-03-28T02:52:14.641Z,3.20
2018-03-28T02:54:42.962Z,3.30
2018-03-28T02:57:10.505Z,3.30
2018-03-28T02:59:38.055Z,3.30
2018-03-28T03:02:05.586Z,3.30
2018-03-28T03:04:33.130Z,3.30
2018-03-28T03:07:00.660Z,3.40
2018-03-28T03:09:28.208Z,3.40
2018-03-28T03:11:55.731Z,3.40
2018-03-28T03:14:24.040Z,3.40
2018-03-28T03:16:51.560Z,3.40
2018-03-28T03:19:19.894Z,3.40
2018-03-28T03:21:47.440Z,3.40
2018-03-28T03:24:14.943Z,3.40
2018-03-28T03:26:42.532Z,3.40
2018-03-28T03:29:10.056Z,3.40
2018-03-28T03:31:37.605Z,3.40
2018-03-28T03:34:05.127Z,3.40
2018-03-28T03:36:32.668Z,3.40
2018-03-28T03:39:00.183Z,3.50
2018-03-28T03:41:27.723Z,3.50
2018-03-28T03:43:55.264Z,3.50
2018-03-28T03:46:22.812Z,3.50
2018-03-28T03:48:50.336Z,3.50
2018-03-28T03:51:18.640Z,3.50
2018-03-28T03:53:46.167Z,3.50
2018-03-28T03:56:14.480Z,3.50
2018-03-28T03:58:42.004Z,3.50
2018-03-28T04:01:10.312Z,3.50
2018-03-28T04:03:37.838Z,3.50
2018-03-28T04:06:06.156Z,3.60
2018-03-28T04:08:33.687Z,3.60
2018-03-28T04:11:01.972Z,3.60
2018-03-28T04:13:29.514Z,3.60
2018-03-28T04:15:57.792Z,3.70
2018-03-28T04:18:26.104Z,3.70
2018-03-28T04:20:53.622Z,3.70
2018-03-28T04:23:21.165Z,3.70
2018-03-28T04:25:48.685Z,3.70
2018-03-28T04:28:16.229Z,3.70
2018-03-28T04:30:43.753Z,3.70
2018-03-28T04:33:12.053Z,3.80
2018-03-28T04:35:39.565Z,3.70
2018-03-28T04:38:07.123Z,3.80
2018-03-28T04:40:34.677Z,3.80
2018-03-28T04:43:02.220Z,3.80
2018-03-28T04:45:29.740Z,3.80
2018-03-28T04:47:57.293Z,3.80
2018-03-28T04:50:24.853Z,3.80
2018-03-28T04:52:52.376Z,3.80
2018-03-28T04:55:19.911Z,3.90
2018-03-28T04:57:47.429Z,3.90
2018-03-28T05:00:14.972Z,3.90
2018-03-28T05:02:43.265Z,3.90
2018-03-28T05:05:10.815Z,3.90
2018-03-28T05:07:39.109Z,4.00
2018-03-28T05:10:06.649Z,3.90
2018-03-28T05:12:34.937Z,4.00
2018-03-28T05:15:02.476Z,3.90
2018-03-28T05:17:30.764Z,4.00
2018-03-28T05:19:58.311Z,3.90
2018-03-28T05:22:26.641Z,4.00
2018-03-28T05:24:54.163Z,3.90
2018-03-28T05:27:21.684Z,4.00
2018-03-28T05:29:49.228Z,4.00
2018-03-28T05:32:16.756Z,4.00
2018-03-28T05:34:44.297Z,4.00
2018-03-28T05:37:11.816Z,4.00
2018-03-28T05:39:39.356Z,4.10
2018-03-28T05:42:06.882Z,4.10
2018-03-28T05:44:34.424Z,4.20
2018-03-28T05:47:01.959Z,4.20
2018-03-28T05:49:29.497Z,4.20
2018-03-28T05:51:57.037Z,4.20
2018-03-28T05:54:24.553Z,4.30
2018-03-28T05:56:52.088Z,4.30
2018-03-28T05:59:19.604Z,4.30
2018-03-28T06:01:47.135Z,4.30
2018-03-28T06:04:14.663Z,4.30
2018-03-28T06:06:42.986Z,4.40
2018-03-28T06:09:10.499Z,4.40
2018-03-28T06:11:38.810Z,4.50
2018-03-28T06:14:06.348Z,4.50
2018-03-28T06:16:33.891Z,4.50
2018-03-28T06:19:02.181Z,4.50
2018-03-28T06:21:30.484Z,4.50
2018-03-28T06:23:58.006Z,4.50
2018-03-28T06:26:26.321Z,4.60
2018-03-28T06:28:53.844Z,4.60
2018-03-28T06:31:22.144Z,4.80
2018-03-28T06:33:49.670Z,4.70
2018-03-28T06:36:18.022Z,4.90
2018-03-28T06:38:45.525Z,4.40
2018-03-28T06:41:13.070Z,4.90
2018-03-28T06:43:41.360Z,5.10
2018-03-28T06:46:08.906Z,5.10
2018-03-28T06:48:36.456Z,5.10
2018-03-28T06:51:04.005Z,5.20
2018-03-28T06:53:32.345Z,5.40
2018-03-28T06:55:59.844Z,5.40
2018-03-28T06:58:28.146Z,5.60
2018-03-28T07:00:55.689Z,5.60
2018-03-28T07:03:25.906Z,5.90
2018-03-28T07:05:54.228Z,6.00
2018-03-28T07:08:21.756Z,5.90
2018-03-28T07:10:49.303Z,6.10
2018-03-28T07:13:17.588Z,6.30
2018-03-28T07:15:45.146Z,6.30
2018-03-28T07:18:13.429Z,6.40
2018-03-28T07:20:41.007Z,6.30
2018-03-28T07:23:08.512Z,6.40
2018-03-28T07:25:36.105Z,6.50
2018-03-28T07:28:03.627Z,6.60
2018-03-28T07:30:31.160Z,6.60
2018-03-28T07:32:58.675Z,6.70
2018-03-28T07:35:26.209Z,6.70
2018-03-28T07:37:54.509Z,6.80
2018-03-28T07:40:22.045Z,6.70
2018-03-28T07:42:49.602Z,6.80
2018-03-28T07:45:17.893Z,7.00
2018-03-28T07:47:46.204Z,7.00
2018-03-28T07:50:13.720Z,7.00
2018-03-28T07:52:42.030Z,7.20
2018-03-28T07:55:09.572Z,7.10
2018-03-28T07:57:37.423Z,7.20
2018-03-28T08:00:05.080Z,7.20
2018-03-28T08:02:32.673Z,7.40
2018-03-28T08:05:00.184Z,7.40
2018-03-28T08:07:27.728Z,7.50
2018-03-28T08:09:55.249Z,7.50
2018-03-28T08:12:22.793Z,7.50
2018-03-28T08:14:50.320Z,7.60
2018-03-28T08:17:17.872Z,7.60
2018-03-28T08:19:45.402Z,7.70
2018-03-28T08:22:12.940Z,7.90
2018-03-28T08:24:40.476Z,7.90
2018-03-28T08:27:08.040Z,8.00
2018-03-28T08:29:35.866Z,8.00
2018-03-28T08:32:03.404Z,8.00
2018-03-28T08:34:30.933Z,8.30
2018-03-28T08:36:58.482Z,8.50
2018-03-28T08:39:26.012Z,8.80
2018-03-28T08:41:54.341Z,9.10
2018-03-28T08:44:21.862Z,9.10
2018-03-28T08:46:50.178Z,9.10
2018-03-28T08:49:17.693Z,9.10
2018-03-28T08:51:45.297Z,9.00
2018-03-28T08:54:12.817Z,8.90
2018-03-28T08:56:40.361Z,8.70
2018-03-28T08:59:08.650Z,8.70
2018-03-28T09:01:36.960Z,8.70
2018-03-28T09:04:05.262Z,8.70
2018-03-28T09:06:32.815Z,8.60
2018-03-28T09:09:00.350Z,8.70
2018-03-28T09:11:28.677Z,8.80
2018-03-28T09:13:56.210Z,8.80
2018-03-28T09:16:23.749Z,9.00
2018-03-28T09:18:51.290Z,9.10
2018-03-28T09:21:18.834Z,9.10
2018-03-28T09:23:46.419Z,9.20
2018-03-28T09:26:13.952Z,9.60
2018-03-28T09:28:41.486Z,9.70
2018-03-28T09:31:09.790Z,9.70
2018-03-28T09:33:37.312Z,9.70
2018-03-28T09:36:04.849Z,9.50
2018-03-28T09:38:32.381Z,9.60
2018-03-28T09:40:59.942Z,9.60
2018-03-28T09:43:27.472Z,9.90
2018-03-28T09:45:54.994Z,10.00
2018-03-28T09:48:22.544Z,10.20
2018-03-28T09:50:50.064Z,10.20
2018-03-28T09:53:21.057Z,10.20
2018-03-28T09:55:48.576Z,10.40
2018-03-28T09:58:16.129Z,10.60
2018-03-28T10:00:45.653Z,10.80
2018-03-28T10:03:13.768Z,11.30
2018-03-28T10:05:42.058Z,12.90
2018-03-28T10:08:09.597Z,12.90
2018-03-28T10:10:37.112Z,13.20
2018-03-28T10:13:04.660Z,13.20
2018-03-28T10:15:32.182Z,12.90
2018-03-28T10:18:00.501Z,12.30
2018-03-28T10:20:28.028Z,12.20
2018-03-28T10:22:55.584Z,12.30
2018-03-28T10:25:23.117Z,12.20
2018-03-28T10:27:50.665Z,12.00
2018-03-28T10:30:18.197Z,11.70
2018-03-28T10:32:45.763Z,11.60
2018-03-28T10:35:13.315Z,11.70
2018-03-28T10:37:40.853Z,11.50
2018-03-28T10:40:08.381Z,11.60
2018-03-28T10:42:36.697Z,11.50
2018-03-28T10:45:04.230Z,11.50
2018-03-28T10:47:31.778Z,11.50
2018-03-28T10:50:00.084Z,11.90
2018-03-28T10:52:27.633Z,11.90
2018-03-28T10:54:55.167Z,12.10
2018-03-28T10:57:23.483Z,11.90
2018-03-28T10:59:51.012Z,11.90
2018-03-28T11:02:18.557Z,11.50
2018-03-28T11:04:46.844Z,11.00
2018-03-28T11:07:14.400Z,11.00
2018-03-28T11:09:41.933Z,10.70
2018-03-28T11:12:09.482Z,10.50
2018-03-28T11:14:37.008Z,10.30
2018-03-28T11:17:04.548Z,10.40
2018-03-28T11:19:32.065Z,10.50
2018-03-28T11:21:59.687Z,10.70
2018-03-28T11:24:27.204Z,11.00
2018-03-28T11:26:55.488Z,13.30
2018-03-28T11:29:23.793Z,13.60
2018-03-28T11:31:51.320Z,13.60
2018-03-28T11:34:19.624Z,13.50
2018-03-28T11:36:47.150Z,13.40
2018-03-28T11:39:15.453Z,13.30
2018-03-28T11:41:42.982Z,13.30
2018-03-28T11:44:11.308Z,12.60
2018-03-28T11:46:38.879Z,12.60
2018-03-28T11:49:06.455Z,12.80
2018-03-28T11:51:33.972Z,12.60
2018-03-28T11:54:01.517Z,12.60
2018-03-28T11:56:29.027Z,12.60
2018-03-28T11:58:56.564Z,12.10
2018-03-28T12:01:24.081Z,12.10
2018-03-28T12:03:51.620Z,12.30
2018-03-28T12:06:19.891Z,13.00
2018-03-28T12:08:48.208Z,13.40
2018-03-28T12:11:15.745Z,13.30
2018-03-28T12:13:43.301Z,13.70
2018-03-28T12:16:10.861Z,14.70
2018-03-28T12:18:38.415Z,16.30
2018-03-28T12:21:05.949Z,18.40
2018-03-28T12:23:33.488Z,19.00
2018-03-28T12:26:01.008Z,20.10
2018-03-28T12:28:28.545Z,20.50
2018-03-28T12:30:56.063Z,20.60
2018-03-28T12:33:23.618Z,19.60
2018-03-28T12:35:51.359Z,17.50
2018-03-28T12:38:18.902Z,16.80
2018-03-28T12:40:46.443Z,17.00
2018-03-28T12:43:13.992Z,17.10
2018-03-28T12:45:42.291Z,18.00
2018-03-28T12:48:09.846Z,17.90
2018-03-28T12:50:37.388Z,17.80
2018-03-28T12:53:05.710Z,17.10
2018-03-28T12:55:33.329Z,17.10
2018-03-28T12:58:00.808Z,16.60
2018-03-28T13:00:28.333Z,15.80
2018-03-28T13:02:56.687Z,15.20
2018-03-28T13:05:24.241Z,15.20
2018-03-28T13:07:51.821Z,15.20
2018-03-28T13:10:19.345Z,14.70
2018-03-28T13:12:46.886Z,14.90
2018-03-28T13:15:14.411Z,14.50
2018-03-28T13:17:42.717Z,14.70
2018-03-28T13:20:10.256Z,14.70
2018-03-28T13:22:37.774Z,14.40
2018-03-28T13:25:05.312Z,14.20
2018-03-28T13:27:32.840Z,13.80
2018-03-28T13:30:00.385Z,13.70
2018-03-28T13:32:28.668Z,13.50
2018-03-28T13:34:56.207Z,13.50
2018-03-28T13:37:24.480Z,13.60
2018-03-28T13:39:52.788Z,13.50
2018-03-28T13:42:20.311Z,13.50
2018-03-28T13:44:48.616Z,13.50
2018-03-28T13:47:16.149Z,13.50
2018-03-28T13:49:44.449Z,13.30
2018-03-28T13:52:11.974Z,13.20
2018-03-28T13:54:39.512Z,13.20
2018-03-28T13:57:07.033Z,13.20
2018-03-28T13:59:34.572Z,13.20
2018-03-28T14:02:02.848Z,13.00
2018-03-28T14:04:30.395Z,12.90
2018-03-28T14:06:58.685Z,12.80
2018-03-28T14:09:26.229Z,12.80
2018-03-28T14:11:53.746Z,12.80
2018-03-28T14:14:21.304Z,12.80
2018-03-28T14:16:48.829Z,13.00
2018-03-28T14:19:16.372Z,12.90
2018-03-28T14:21:43.899Z,12.90
2018-03-28T14:24:12.232Z,13.00
2018-03-28T14:26:39.752Z,13.00
2018-03-28T14:29:08.063Z,13.30
2018-03-28T14:31:35.682Z,13.30
2018-03-28T14:34:03.241Z,13.40
2018-03-28T14:36:30.787Z,13.60
2018-03-28T14:38:58.316Z,13.70
2018-03-28T14:41:26.696Z,13.50
2018-03-28T14:43:54.237Z,13.50
2018-03-28T14:46:21.793Z,13.60
2018-03-28T14:48:49.337Z,13.60
2018-03-28T14:51:16.856Z,13.50
2018-03-28T14:53:44.416Z,13.60
2018-03-28T14:56:11.940Z,13.50
2018-03-28T14:58:39.494Z,13.50
2018-03-28T15:01:07.024Z,13.40
2018-03-28T15:03:34.566Z,13.20
2018-03-28T15:06:02.143Z,13.10
2018-03-28T15:08:29.709Z,13.00
2018-03-28T15:10:57.238Z,12.90
2018-03-28T15:13:25.543Z,12.70
2018-03-28T15:15:53.092Z,12.60
2018-03-28T15:18:20.625Z,12.60
2018-03-28T15:20:48.177Z,12.50
2018-03-28T15:23:15.704Z,12.40
2018-03-28T15:25:43.252Z,12.40
2018-03-28T15:28:10.768Z,12.40
2018-03-28T15:30:39.073Z,12.20
2018-03-28T15:33:06.624Z,12.20
2018-03-28T15:35:34.161Z,12.20
2018-03-28T15:38:01.725Z,12.20
2018-03-28T15:40:30.043Z,12.10
2018-03-28T15:42:57.572Z,12.10
2018-03-28T15:45:25.121Z,12.00
2018-03-28T15:47:53.411Z,11.90
2018-03-28T15:50:20.964Z,11.90
2018-03-28T15:52:48.480Z,11.90
2018-03-28T15:55:16.013Z,11.80
2018-03-28T15:57:43.532Z,11.80
2018-03-28T16:00:11.080Z,11.70
2018-03-28T16:02:39.363Z,11.60
2018-03-28T16:05:07.696Z,11.50
2018-03-28T16:07:35.223Z,11.50
2018-03-28T16:10:02.759Z,11.40
2018-03-28T16:12:30.304Z,11.30
2018-03-28T16:14:58.592Z,10.90
2018-03-28T16:17:26.156Z,10.90
2018-03-28T16:19:53.668Z,10.70
2018-03-28T16:22:21.209Z,10.50
2018-03-28T16:24:48.728Z,10.20
2018-03-28T16:27:16.263Z,10.10
2018-03-28T16:29:44.552Z,9.90
2018-03-28T16:32:12.874Z,9.80
2018-03-28T16:34:39.905Z,9.70
2018-03-28T16:37:07.449Z,9.60
2018-03-28T16:39:34.964Z,9.50
2018-03-28T16:42:02.525Z,9.50
2018-03-28T16:44:30.041Z,9.40
2018-03-28T16:46:57.614Z,9.40
2018-03-28T16:49:25.104Z,9.30
2018-03-28T16:51:52.636Z,9.30
2018-03-28T16:54:20.143Z,9.30
2018-03-28T16:56:48.446Z,9.30
2018-03-28T16:59:15.983Z,9.30
2018-03-28T17:01:43.532Z,9.30
2018-03-28T17:04:11.095Z,9.30
2018-03-28T17:06:38.644Z,9.20
2018-03-28T17:09:06.960Z,9.10
2018-03-28T17:11:34.486Z,9.10
2018-03-28T17:14:02.801Z,9.00
2018-03-28T17:16:30.320Z,9.00
2018-03-28T17:18:58.612Z,8.90
2018-03-28T17:21:26.124Z,8.90
2018-03-28T17:23:53.656Z,8.90
2018-03-28T17:26:21.184Z,8.90
2018-03-28T17:28:48.772Z,8.90
2018-03-28T17:31:16.290Z,8.90
2018-03-28T17:33:43.830Z,8.90
2018-03-28T17:36:12.138Z,8.80
2018-03-28T17:38:40.034Z,8.80
2018-03-28T17:41:07.545Z,8.80
2018-03-28T17:43:35.843Z,8.80
2018-03-28T17:46:03.357Z,8.80
2018-03-28T17:48:30.896Z,8.80
2018-03-28T17:50:58.408Z,8.80
2018-03-28T17:53:25.945Z,8.80
2018-03-28T17:55:54.466Z,8.80
2018-03-28T17:58:22.006Z,8.70
2018-03-28T18:00:49.541Z,8.80
2018-03-28T18:03:17.844Z,8.70
2018-03-28T18:05:45.485Z,8.70
2018-03-28T18:08:13.775Z,8.70
2018-03-28T18:10:41.404Z,8.70
2018-03-28T18:13:11.797Z,8.70
2018-03-28T18:15:39.924Z,8.70
2018-03-28T18:18:07.455Z,8.70
2018-03-28T18:20:34.984Z,8.70
2018-03-28T18:23:04.576Z,8.70
2018-03-28T18:25:32.095Z,8.70
2018-03-28T18:28:01.109Z,8.70
2018-03-28T18:30:28.827Z,8.60
2018-03-28T18:32:56.413Z,8.60
2018-03-28T18:35:24.115Z,8.60
2018-03-28T18:37:52.149Z,8.60
2018-03-28T18:40:20.433Z,8.60
2018-03-28T18:42:47.975Z,8.50
2018-03-28T18:45:15.501Z,8.50
2018-03-28T18:47:43.065Z,8.50
2018-03-28T18:50:10.669Z,8.50
2018-03-28T18:52:38.211Z,8.50
2018-03-28T18:55:06.502Z,8.50
2018-03-28T18:57:34.080Z,8.50
2018-03-28T19:00:01.626Z,8.50
2018-03-28T19:02:29.231Z,8.50
2018-03-28T19:04:56.764Z,8.50
2018-03-28T19:07:24.281Z,8.50
2018-03-28T19:09:52.579Z,8.50
2018-03-28T19:12:20.104Z,8.50
2018-03-28T19:14:48.559Z,8.60
2018-03-28T19:17:16.480Z,8.60
2018-03-28T19:19:44.015Z,8.60
2018-03-28T19:22:12.297Z,8.60
2018-03-28T19:24:40.592Z,8.60
2018-03-28T19:27:08.099Z,8.60
2018-03-28T19:29:35.637Z,8.60
2018-03-28T19:32:03.155Z,8.60
2018-03-28T19:34:30.692Z,8.60
2018-03-28T19:36:58.984Z,8.60
2018-03-28T19:39:27.293Z,8.60
2018-03-28T19:41:54.864Z,8.60
2018-03-28T19:44:22.381Z,8.60
2018-03-28T19:46:50.657Z,8.60
2018-03-28T19:49:18.190Z,8.60
2018-03-28T19:51:45.736Z,8.60
2018-03-28T19:54:13.288Z,8.60
2018-03-28T19:56:40.800Z,8.60
2018-03-28T19:59:08.430Z,8.60
2018-03-28T20:01:36.708Z,8.60
2018-03-28T20:04:04.244Z,8.60
2018-03-28T20:06:31.793Z,8.60
2018-03-28T20:08:59.331Z,8.60
2018-03-28T20:11:27.078Z,8.60
2018-03-28T20:13:54.631Z,8.60
2018-03-28T20:16:22.148Z,8.60
2018-03-28T20:18:49.704Z,8.50
2018-03-28T20:21:17.238Z,8.50
2018-03-28T20:23:44.968Z,8.50
2018-03-28T20:26:12.540Z,8.60
2018-03-28T20:28:40.326Z,8.60
2018-03-28T20:31:08.132Z,8.60
2018-03-28T20:33:36.460Z,8.60
2018-03-28T20:36:04.020Z,8.60
2018-03-28T20:38:31.535Z,8.60
2018-03-28T20:41:00.210Z,8.60
2018-03-28T20:43:28.518Z,8.60
2018-03-28T20:45:56.080Z,8.60
2018-03-28T20:48:23.684Z,8.60
2018-03-28T20:50:51.388Z,8.60
2018-03-28T20:53:19.187Z,8.60
2018-03-28T20:55:46.754Z,8.60
2018-03-28T20:58:14.268Z,8.60
2018-03-28T21:00:41.801Z,8.60
2018-03-28T21:03:10.088Z,8.60
2018-03-28T21:05:38.391Z,8.60
2018-03-28T21:08:05.972Z,8.60
2018-03-28T21:10:33.512Z,8.70
2018-03-28T21:13:01.036Z,8.70
2018-03-28T21:15:29.344Z,8.80
2018-03-28T21:17:56.870Z,8.70
2018-03-28T21:20:25.145Z,8.70
2018-03-28T21:22:53.444Z,8.80
2018-03-28T21:25:20.984Z,8.70
2018-03-28T21:27:48.541Z,8.80
2018-03-28T21:30:16.865Z,8.70
2018-03-28T21:32:44.449Z,8.70
2018-03-28T21:35:11.962Z,8.70
2018-03-28T21:37:39.500Z,8.70
2018-03-28T21:40:07.051Z,8.60
2018-03-28T21:42:34.594Z,8.60
2018-03-28T21:45:02.116Z,8.60
2018-03-28T21:47:29.662Z,8.60
2018-03-28T21:49:57.184Z,8.50
2018-03-28T21:52:25.476Z,8.50
2018-03-28T21:54:52.991Z,8.50
2018-03-28T21:57:20.521Z,8.40
2018-03-28T21:59:48.052Z,8.40
2018-03-28T22:02:15.629Z,8.40
2018-03-28T22:04:43.368Z,8.40
2018-03-28T22:07:10.904Z,8.30
2018-03-28T22:09:39.196Z,8.30
2018-03-28T22:12:06.745Z,8.30
2018-03-28T22:14:35.025Z,8.20
2018-03-28T22:17:03.331Z,8.20
2018-03-28T22:19:30.852Z,8.20
2018-03-28T22:21:59.167Z,8.20
2018-03-28T22:24:26.735Z,8.20
2018-03-28T22:26:54.261Z,8.10
2018-03-28T22:29:21.787Z,8.10
2018-03-28T22:31:49.316Z,8.10
2018-03-28T22:34:16.842Z,8.10
2018-03-28T22:36:44.372Z,8.10
2018-03-28T22:39:12.658Z,8.10
2018-03-28T22:41:40.957Z,8.10
2018-03-28T22:44:08.468Z,8.00
2018-03-28T22:46:36.001Z,8.00
2018-03-28T22:49:03.511Z,8.00
2018-03-28T22:51:31.805Z,8.00
2018-03-28T22:53:59.309Z,8.00
2018-03-28T22:56:26.857Z,8.00
2018-03-28T22:58:54.367Z,8.00
2018-03-28T23:01:21.916Z,7.90
2018-03-28T23:03:50.213Z,7.90
2018-03-28T23:06:17.724Z,7.90
2018-03-28T23:08:45.264Z,7.90
2018-03-28T23:11:12.780Z,7.90
2018-03-28T23:13:40.316Z,7.90
2018-03-28T23:16:07.858Z,7.90
2018-03-28T23:18:35.397Z,8.00
2018-03-28T23:21:02.921Z,8.00
2018-03-28T23:23:30.466Z,8.10
2018-03-28T23:25:57.994Z,8.10
2018-03-28T23:28:25.537Z,8.10
2018-03-28T23:30:53.069Z,8.20
2018-03-28T23:33:20.606Z,8.20
2018-03-28T23:35:48.138Z,8.20
2018-03-28T23:38:16.447Z,8.20
2018-03-28T23:40:43.987Z,8.20
2018-03-28T23:43:11.528Z,8.20
2018-03-28T23:45:39.819Z,8.20
2018-03-28T23:48:08.117Z,8.10
2018-03-28T23:50:35.633Z,8.00
2018-03-28T23:53:03.179Z,8.10
2018-03-28T23:55:30.697Z,8.00
2018-03-28T23:57:58.247Z,8.00
